createdAt,value
2023-01-12T00:01:40.181Z,96921.81
2023-01-12T00:04:07.514Z,96918.25
2023-01-12T00:06:34.857Z,96928.94
2023-01-12T00:09:03.948Z,96926.88
2023-01-12T00:11:30.614Z,96920.44
2023-01-12T00:13:58.107Z,96917.72
2023-01-12T00:16:34.769Z,96921.28
2023-01-12T00:19:02.666Z,96927.13
2023-01-12T00:21:31.360Z,96908.56
2023-01-12T00:23:57.924Z,96908.75
2023-01-12T00:26:24.545Z,96921.78
2023-01-12T00:28:51.109Z,96921.78
2023-01-12T00:31:17.733Z,96910.78
2023-01-12T00:33:44.328Z,96905.25
2023-01-12T00:36:13.928Z,96905.09
2023-01-12T00:38:40.557Z,96884.38
2023-01-12T00:41:08.730Z,96885.41
2023-01-12T00:43:54.615Z,96894.84
2023-01-12T00:46:31.571Z,96896.53
2023-01-12T00:48:58.468Z,96893.38
2023-01-12T00:51:25.219Z,96888.88
2023-01-12T00:53:51.941Z,96902.72
2023-01-12T00:56:18.561Z,96902.91
2023-01-12T00:58:45.165Z,96891.50
2023-01-12T01:01:11.802Z,96897.13
2023-01-12T01:03:38.448Z,96896.47
2023-01-12T01:06:06.528Z,96896.00
2023-01-12T01:08:37.329Z,96900.25
2023-01-12T01:11:09.247Z,96902.19
2023-01-12T01:13:36.954Z,96909.50
2023-01-12T01:16:05.310Z,96895.63
2023-01-12T01:18:32.969Z,96887.69
2023-01-12T01:20:59.617Z,96887.38
2023-01-12T01:23:27.694Z,96882.38
2023-01-12T01:25:54.677Z,96892.63
2023-01-12T01:28:21.627Z,96879.66
2023-01-12T01:30:48.783Z,96877.25
2023-01-12T01:33:15.430Z,96887.31
2023-01-12T01:35:41.983Z,96871.84
2023-01-12T01:38:09.581Z,96879.81
2023-01-12T01:40:42.488Z,96884.31
2023-01-12T01:43:16.909Z,96870.59
2023-01-12T01:45:48.719Z,96878.22
2023-01-12T01:48:17.181Z,96874.16
2023-01-12T01:50:51.332Z,96878.41
2023-01-12T01:53:21.166Z,96874.44
2023-01-12T01:55:52.953Z,96870.88
2023-01-12T01:58:28.044Z,96855.25
2023-01-12T02:00:54.837Z,96859.47
2023-01-12T02:03:21.673Z,96850.75
2023-01-12T02:05:50.243Z,96857.59
2023-01-12T02:08:34.112Z,96860.97
2023-01-12T02:11:02.204Z,96865.19
2023-01-12T02:13:50.238Z,96847.50
2023-01-12T02:16:25.540Z,96848.72
2023-01-12T02:18:57.882Z,96845.16
2023-01-12T02:22:01.326Z,96854.81
2023-01-12T02:25:05.515Z,96859.97
2023-01-12T02:28:17.063Z,96850.03
2023-01-12T02:31:12.685Z,96849.09
2023-01-12T02:33:58.383Z,96854.53
2023-01-12T02:36:43.713Z,96848.25
2023-01-12T02:39:22.807Z,96840.97
2023-01-12T02:42:43.030Z,96852.31
2023-01-12T02:45:38.979Z,96835.81
2023-01-12T02:48:08.276Z,96850.53
2023-01-12T02:50:51.139Z,96856.50
2023-01-12T02:53:53.822Z,96856.81
2023-01-12T02:56:40.688Z,96849.22
2023-01-12T02:59:13.806Z,96845.03
2023-01-12T03:01:42.710Z,96840.53
2023-01-12T03:04:11.581Z,96845.03
2023-01-12T03:07:06.019Z,96844.19
2023-01-12T03:09:49.396Z,96839.59
2023-01-12T03:12:28.952Z,96847.56
2023-01-12T03:14:58.619Z,96832.13
2023-01-12T03:17:44.357Z,96832.22
2023-01-12T03:20:17.775Z,96814.50
2023-01-12T03:22:47.550Z,96820.69
2023-01-12T03:25:17.191Z,96827.72
2023-01-12T03:27:49.880Z,96827.91
2023-01-12T03:30:36.514Z,96822.81
2023-01-12T03:33:05.096Z,96817.13
2023-01-12T03:35:38.122Z,96815.63
2023-01-12T03:38:29.514Z,96825.19
2023-01-12T03:41:05.133Z,96819.84
2023-01-12T03:43:38.689Z,96832.31
2023-01-12T03:46:16.488Z,96823.41
2023-01-12T03:48:53.115Z,96821.81
2023-01-12T03:51:26.214Z,96814.22
2023-01-12T03:53:54.688Z,96801.28
2023-01-12T03:56:24.365Z,96798.78
2023-01-12T03:58:51.809Z,96807.53
2023-01-12T04:01:18.814Z,96790.91
2023-01-12T04:03:45.947Z,96782.94
2023-01-12T04:06:12.577Z,96777.84
2023-01-12T04:08:39.141Z,96775.81
2023-01-12T04:11:25.953Z,96769.38
2023-01-12T04:13:52.810Z,96761.66
2023-01-12T04:16:19.745Z,96773.78
2023-01-12T04:18:46.345Z,96762.41
2023-01-12T04:21:32.929Z,96770.00
2023-01-12T04:24:00.655Z,96753.25
2023-01-12T04:26:27.231Z,96774.22
2023-01-12T04:28:53.827Z,96757.38
2023-01-12T04:31:20.453Z,96755.50
2023-01-12T04:33:47.031Z,96753.34
2023-01-12T04:36:15.540Z,96753.25
2023-01-12T04:38:42.343Z,96735.94
2023-01-12T04:41:09.037Z,96729.84
2023-01-12T04:43:36.336Z,96730.00
2023-01-12T04:46:08.090Z,96738.81
2023-01-12T04:48:34.908Z,96724.66
2023-01-12T04:51:01.958Z,96722.03
2023-01-12T04:53:28.922Z,96726.06
2023-01-12T04:55:56.432Z,96725.53
2023-01-12T04:58:23.256Z,96719.63
2023-01-12T05:00:50.274Z,96720.66
2023-01-12T05:03:17.551Z,96699.31
2023-01-12T05:05:44.394Z,96698.63
2023-01-12T05:08:31.073Z,96684.69
2023-01-12T05:11:00.689Z,96681.69
2023-01-12T05:13:30.597Z,96677.22
2023-01-12T05:15:57.525Z,96683.19
2023-01-12T05:18:24.175Z,96668.00
2023-01-12T05:20:50.746Z,96666.25
2023-01-12T05:23:17.310Z,96660.13
2023-01-12T05:25:43.935Z,96651.91
2023-01-12T05:28:10.559Z,96658.66
2023-01-12T05:30:37.142Z,96659.88
2023-01-12T05:33:03.813Z,96640.09
2023-01-12T05:35:30.367Z,96650.53
2023-01-12T05:37:57.192Z,96648.66
2023-01-12T05:40:24.006Z,96654.16
2023-01-12T05:43:10.322Z,96643.66
2023-01-12T05:45:37.292Z,96645.44
2023-01-12T05:48:04.304Z,96632.06
2023-01-12T05:50:30.881Z,96626.94
2023-01-12T05:53:10.232Z,96619.06
2023-01-12T05:55:38.417Z,96604.19
2023-01-12T05:58:05.162Z,96622.53
2023-01-12T06:00:31.787Z,96623.28
2023-01-12T06:02:58.396Z,96618.03
2023-01-12T06:05:25.037Z,96602.88
2023-01-12T06:07:51.628Z,96616.34
2023-01-12T06:10:18.285Z,96611.84
2023-01-12T06:13:03.368Z,96606.69
2023-01-12T06:15:32.413Z,96587.59
2023-01-12T06:17:59.083Z,96604.66
2023-01-12T06:20:25.625Z,96616.06
2023-01-12T06:22:52.188Z,96610.25
2023-01-12T06:25:19.449Z,96617.38
2023-01-12T06:27:46.036Z,96604.38
2023-01-12T06:30:13.279Z,96625.16
2023-01-12T06:32:41.542Z,96614.03
2023-01-12T06:35:18.553Z,96627.19
2023-01-12T06:37:46.550Z,96621.78
2023-01-12T06:40:13.559Z,96614.09
2023-01-12T06:42:42.066Z,96605.28
2023-01-12T06:45:09.618Z,96619.44
2023-01-12T06:47:44.531Z,96601.41
2023-01-12T06:50:11.550Z,96599.16
2023-01-12T06:52:38.096Z,96590.44
2023-01-12T06:55:05.107Z,96588.75
2023-01-12T06:57:31.665Z,96573.31
2023-01-12T06:59:58.220Z,96577.53
2023-01-12T07:02:24.802Z,96574.03
2023-01-12T07:04:51.421Z,96573.13
2023-01-12T07:07:17.978Z,96558.31
2023-01-12T07:09:44.552Z,96558.31
2023-01-12T07:12:11.104Z,96556.56
2023-01-12T07:14:37.660Z,96562.34
2023-01-12T07:17:04.258Z,96548.31
2023-01-12T07:19:30.831Z,96555.78
2023-01-12T07:21:57.440Z,96544.16
2023-01-12T07:24:24.007Z,96550.34
2023-01-12T07:26:50.893Z,96545.78
2023-01-12T07:29:17.482Z,96551.94
2023-01-12T07:31:45.351Z,96545.56
2023-01-12T07:34:12.329Z,96545.66
2023-01-12T07:36:39.428Z,96546.88
2023-01-12T07:39:06.121Z,96552.13
2023-01-12T07:41:58.775Z,96548.38
2023-01-12T07:44:25.341Z,96549.75
2023-01-12T07:46:51.935Z,96557.94
2023-01-12T07:49:18.542Z,96545.09
2023-01-12T07:51:45.121Z,96557.84
2023-01-12T07:54:11.693Z,96552.31
2023-01-12T07:56:38.249Z,96559.03
2023-01-12T07:59:04.811Z,96562.69
2023-01-12T08:01:32.982Z,96532.41
2023-01-12T08:03:59.731Z,96538.78
2023-01-12T08:06:26.420Z,96549.47
2023-01-12T08:08:54.517Z,96537.25
2023-01-12T08:11:22.941Z,96545.97
2023-01-12T08:13:55.555Z,96549.53
2023-01-12T08:16:53.275Z,96554.69
2023-01-12T08:19:49.833Z,96573.56
2023-01-12T08:22:30.957Z,96566.66
2023-01-12T08:25:03.999Z,96574.31
2023-01-12T08:27:33.973Z,96569.91
2023-01-12T08:30:02.716Z,96582.41
2023-01-12T08:32:29.761Z,96572.47
2023-01-12T08:35:01.716Z,96569.53
2023-01-12T08:37:30.101Z,96553.78
2023-01-12T08:39:57.560Z,96555.53
2023-01-12T08:42:26.494Z,96562.72
2023-01-12T08:44:54.547Z,96554.03
2023-01-12T08:47:27.167Z,96561.16
2023-01-12T08:49:54.505Z,96554.75
2023-01-12T08:52:21.652Z,96557.69
2023-01-12T08:54:49.912Z,96556.38
2023-01-12T08:57:16.981Z,96560.56
2023-01-12T08:59:43.599Z,96554.47
2023-01-12T09:02:14.782Z,96560.28
2023-01-12T09:04:42.076Z,96556.50
2023-01-12T09:07:10.038Z,96550.94
2023-01-12T09:09:36.614Z,96546.97
2023-01-12T09:12:03.779Z,96551.47
2023-01-12T09:14:30.413Z,96560.91
2023-01-12T09:16:57.258Z,96560.41
2023-01-12T09:19:24.220Z,96562.63
2023-01-12T09:21:50.772Z,96567.06
2023-01-12T09:24:17.348Z,96559.28
2023-01-12T09:26:46.076Z,96557.50
2023-01-12T09:29:14.175Z,96563.63
2023-01-12T09:31:43.370Z,96560.88
2023-01-12T09:34:10.339Z,96592.50
2023-01-12T09:36:38.585Z,96588.59
2023-01-12T09:39:09.906Z,96573.69
2023-01-12T09:42:02.804Z,96596.88
2023-01-12T09:44:59.830Z,96583.06
2023-01-12T09:47:39.823Z,96594.59
2023-01-12T09:50:11.892Z,96593.25
2023-01-12T09:52:44.840Z,96597.25
2023-01-12T09:55:17.015Z,96603.34
2023-01-12T09:58:06.970Z,96600.72
2023-01-12T10:00:33.648Z,96595.50
2023-01-12T10:03:14.230Z,96593.38
2023-01-12T10:05:44.214Z,96588.47
2023-01-12T10:08:44.516Z,96591.81
2023-01-12T10:11:18.643Z,96586.03
2023-01-12T10:14:06.732Z,96590.41
2023-01-12T10:16:45.255Z,96582.78
2023-01-12T10:19:41.053Z,96586.25
2023-01-12T10:22:37.451Z,96582.88
2023-01-12T10:25:30.376Z,96590.31
2023-01-12T10:27:59.507Z,96582.56
2023-01-12T10:30:45.304Z,96578.78
2023-01-12T10:33:18.921Z,96574.97
2023-01-12T10:35:50.152Z,96576.47
2023-01-12T10:38:33.895Z,96568.69
2023-01-12T10:41:17.135Z,96574.03
2023-01-12T10:44:06.324Z,96569.94
2023-01-12T10:46:34.352Z,96570.16
2023-01-12T10:49:21.712Z,96586.34
2023-01-12T10:51:53.416Z,96575.84
2023-01-12T10:54:25.362Z,96572.50
2023-01-12T10:57:00.142Z,96555.84
2023-01-12T10:59:31.556Z,96581.91
2023-01-12T11:02:08.345Z,96561.00
2023-01-12T11:04:43.644Z,96563.97
2023-01-12T11:07:19.335Z,96564.91
2023-01-12T11:09:46.471Z,96557.56
2023-01-12T11:12:31.095Z,96567.00
2023-01-12T11:15:02.209Z,96565.03
2023-01-12T11:17:36.843Z,96565.63
2023-01-12T11:20:13.778Z,96574.47
2023-01-12T11:22:43.213Z,96578.06
2023-01-12T11:25:21.434Z,96563.72
2023-01-12T11:27:56.126Z,96577.72
2023-01-12T11:30:34.299Z,96574.88
2023-01-12T11:33:15.446Z,96569.59
2023-01-12T11:35:52.015Z,96572.25
2023-01-12T11:38:32.087Z,96560.69
2023-01-12T11:40:58.814Z,96556.28
2023-01-12T11:43:52.465Z,96561.03
2023-01-12T11:46:26.670Z,96563.19
2023-01-12T11:49:02.309Z,96568.75
2023-01-12T11:51:29.254Z,96566.66
2023-01-12T11:53:56.817Z,96561.94
2023-01-12T11:56:45.095Z,96546.34
2023-01-12T11:59:31.185Z,96549.72
2023-01-12T12:02:16.590Z,96550.38
2023-01-12T12:05:20.975Z,96552.59
2023-01-12T12:07:53.163Z,96552.25
2023-01-12T12:10:36.437Z,96536.47
2023-01-12T12:13:15.269Z,96548.13
2023-01-12T12:16:29.996Z,96536.47
2023-01-12T12:19:06.595Z,96535.13
2023-01-12T12:21:44.975Z,96523.69
2023-01-12T12:24:19.716Z,96534.84
2023-01-12T12:27:21.365Z,96526.75
2023-01-12T12:30:09.324Z,96523.16
2023-01-12T12:32:44.552Z,96526.09
2023-01-12T12:35:48.919Z,96520.59
2023-01-12T12:38:15.490Z,96523.13
2023-01-12T12:41:49.994Z,96523.22
2023-01-12T12:44:40.948Z,96519.28
2023-01-12T12:47:29.152Z,96519.28
2023-01-12T12:49:58.361Z,96516.72
2023-01-12T12:52:31.486Z,96506.31
2023-01-12T12:54:59.348Z,96518.19
2023-01-12T12:57:25.959Z,96512.34
2023-01-12T12:59:56.640Z,96516.53
2023-01-12T13:02:32.477Z,96512.22
2023-01-12T13:05:04.687Z,96514.25
2023-01-12T13:07:36.097Z,96521.41
2023-01-12T13:10:17.159Z,96512.03
2023-01-12T13:12:44.797Z,96510.31
2023-01-12T13:15:24.078Z,96509.59
2023-01-12T13:17:52.956Z,96503.72
2023-01-12T13:20:25.711Z,96514.84
2023-01-12T13:22:52.900Z,96503.91
2023-01-12T13:25:19.541Z,96506.78
2023-01-12T13:28:01.494Z,96502.53
2023-01-12T13:30:28.082Z,96497.59
2023-01-12T13:33:29.284Z,96502.19
2023-01-12T13:36:00.614Z,96504.44
2023-01-12T13:38:49.461Z,96493.34
2023-01-12T13:41:53.248Z,96511.88
2023-01-12T13:44:33.634Z,96503.03
2023-01-12T13:47:16.377Z,96511.03
2023-01-12T13:49:48.034Z,96512.72
2023-01-12T13:52:32.342Z,96510.59
2023-01-12T13:54:59.642Z,96508.81
2023-01-12T13:57:29.028Z,96515.88
2023-01-12T14:00:09.141Z,96509.13
2023-01-12T14:02:40.423Z,96520.94
2023-01-12T14:05:34.355Z,96515.22
2023-01-12T14:08:32.301Z,96524.41
2023-01-12T14:11:36.281Z,96514.00
2023-01-12T14:15:12.700Z,96520.22
2023-01-12T14:17:49.454Z,96507.38
2023-01-12T14:20:22.283Z,96515.28
2023-01-12T14:22:50.217Z,96506.56
2023-01-12T14:25:23.316Z,96519.34
2023-01-12T14:27:52.642Z,96510.63
2023-01-12T14:30:20.026Z,96501.69
2023-01-12T14:32:48.667Z,96504.81
2023-01-12T14:35:18.519Z,96504.94
2023-01-12T14:38:03.650Z,96502.50
2023-01-12T14:40:33.025Z,96494.78
2023-01-12T14:43:20.987Z,96495.41
2023-01-12T14:46:08.950Z,96496.13
2023-01-12T14:48:40.503Z,96489.44
2023-01-12T14:51:10.078Z,96496.81
2023-01-12T14:53:41.820Z,96504.25
2023-01-12T14:56:22.263Z,96499.31
2023-01-12T14:58:49.114Z,96490.59
2023-01-12T15:01:38.195Z,96498.06
2023-01-12T15:04:06.702Z,96500.09
2023-01-12T15:06:41.592Z,96492.31
2023-01-12T15:09:25.156Z,96496.09
2023-01-12T15:11:51.812Z,96481.56
2023-01-12T15:14:27.353Z,96481.06
2023-01-12T15:17:13.442Z,96477.09
2023-01-12T15:19:58.789Z,96492.88
2023-01-12T15:22:47.857Z,96484.56
2023-01-12T15:25:36.129Z,96480.69
2023-01-12T15:28:04.895Z,96491.72
2023-01-12T15:30:33.915Z,96488.38
2023-01-12T15:33:00.550Z,96483.66
2023-01-12T15:35:29.905Z,96490.88
2023-01-12T15:37:58.182Z,96491.84
2023-01-12T15:40:26.844Z,96478.78
2023-01-12T15:42:53.727Z,96482.91
2023-01-12T15:45:27.424Z,96478.94
2023-01-12T15:47:54.032Z,96478.72
2023-01-12T15:50:20.631Z,96475.59
2023-01-12T15:52:48.665Z,96482.72
2023-01-12T15:55:20.607Z,96482.41
2023-01-12T15:57:47.525Z,96471.78
2023-01-12T16:00:16.897Z,96475.63
2023-01-12T16:02:50.645Z,96477.03
2023-01-12T16:05:19.798Z,96476.47
2023-01-12T16:07:48.496Z,96473.13
2023-01-12T16:10:16.814Z,96468.81
2023-01-12T16:12:44.393Z,96475.38
2023-01-12T16:15:20.150Z,96478.09
2023-01-12T16:17:47.439Z,96473.00
2023-01-12T16:20:16.651Z,96480.84
2023-01-12T16:22:44.240Z,96475.03
2023-01-12T16:25:11.291Z,96467.47
2023-01-12T16:27:38.221Z,96469.53
2023-01-12T16:30:07.013Z,96475.59
2023-01-12T16:32:33.645Z,96471.56
2023-01-12T16:35:00.301Z,96473.84
2023-01-12T16:37:29.987Z,96467.88
2023-01-12T16:39:56.684Z,96458.19
2023-01-12T16:42:23.344Z,96469.47
2023-01-12T16:44:50.164Z,96469.38
2023-01-12T16:47:20.026Z,96468.81
2023-01-12T16:49:51.166Z,96460.00
2023-01-12T16:52:19.766Z,96452.09
2023-01-12T16:54:46.426Z,96451.81
2023-01-12T16:57:15.529Z,96462.97
2023-01-12T16:59:42.876Z,96458.53
2023-01-12T17:02:17.966Z,96458.72
2023-01-12T17:04:45.766Z,96450.13
2023-01-12T17:07:12.740Z,96448.69
2023-01-12T17:09:40.638Z,96444.75
2023-01-12T17:12:08.087Z,96433.41
2023-01-12T17:14:36.193Z,96437.41
2023-01-12T17:17:07.352Z,96446.97
2023-01-12T17:19:35.772Z,96443.19
2023-01-12T17:22:03.635Z,96440.97
2023-01-12T17:24:31.647Z,96455.06
2023-01-12T17:26:58.978Z,96455.69
2023-01-12T17:29:26.908Z,96444.34
2023-01-12T17:31:56.553Z,96454.13
2023-01-12T17:34:23.412Z,96462.72
2023-01-12T17:36:50.062Z,96453.59
2023-01-12T17:39:16.716Z,96446.88
2023-01-12T17:42:09.580Z,96450.34
2023-01-12T17:44:36.220Z,96455.28
2023-01-12T17:47:02.982Z,96471.56
2023-01-12T17:49:29.663Z,96456.44
2023-01-12T17:51:56.280Z,96461.28
2023-01-12T17:54:24.745Z,96460.34
2023-01-12T17:56:51.586Z,96459.69
2023-01-12T17:59:20.921Z,96456.75
2023-01-12T18:01:47.947Z,96454.13
2023-01-12T18:04:15.329Z,96460.13
2023-01-12T18:06:42.392Z,96446.59
2023-01-12T18:09:11.503Z,96446.59
2023-01-12T18:11:38.894Z,96443.31
2023-01-12T18:14:06.076Z,96439.97
2023-01-12T18:16:33.386Z,96443.00
2023-01-12T18:19:04.572Z,96431.97
2023-01-12T18:21:32.249Z,96424.63
2023-01-12T18:23:59.480Z,96440.16
2023-01-12T18:26:29.298Z,96441.22
2023-01-12T18:28:57.318Z,96437.88
2023-01-12T18:31:27.040Z,96431.66
2023-01-12T18:34:00.476Z,96433.13
2023-01-12T18:36:31.046Z,96435.44
2023-01-12T18:38:57.809Z,96439.84
2023-01-12T18:41:43.197Z,96436.59
2023-01-12T18:44:13.710Z,96427.78
2023-01-12T18:47:04.191Z,96425.16
2023-01-12T18:49:34.696Z,96419.47
2023-01-12T18:52:30.314Z,96422.94
2023-01-12T18:54:58.909Z,96428.63
2023-01-12T18:57:31.119Z,96418.66
2023-01-12T19:00:13.378Z,96423.91
2023-01-12T19:02:41.699Z,96403.38
2023-01-12T19:05:21.777Z,96403.78
2023-01-12T19:07:57.529Z,96402.84
2023-01-12T19:10:24.952Z,96400.00
2023-01-12T19:13:11.633Z,96394.75
2023-01-12T19:15:56.922Z,96395.13
2023-01-12T19:18:23.582Z,96384.75
2023-01-12T19:20:50.587Z,96390.22
2023-01-12T19:23:36.309Z,96375.75
2023-01-12T19:26:22.353Z,96386.63
2023-01-12T19:28:49.232Z,96378.41
2023-01-12T19:31:16.389Z,96379.78
2023-01-12T19:33:43.848Z,96377.47
2023-01-12T19:36:16.768Z,96380.94
2023-01-12T19:38:45.715Z,96391.56
2023-01-12T19:41:14.477Z,96375.06
2023-01-12T19:43:45.170Z,96381.88
2023-01-12T19:46:13.109Z,96389.44
2023-01-12T19:48:39.772Z,96390.72
2023-01-12T19:51:10.797Z,96393.97
2023-01-12T19:53:38.462Z,96386.91
2023-01-12T19:56:09.712Z,96390.78
2023-01-12T19:58:36.490Z,96396.88
2023-01-12T20:01:03.229Z,96385.28
2023-01-12T20:03:29.838Z,96392.06
2023-01-12T20:05:56.430Z,96388.09
2023-01-12T20:08:24.995Z,96374.13
2023-01-12T20:10:57.582Z,96384.16
2023-01-12T20:13:25.310Z,96384.13
2023-01-12T20:15:53.152Z,96386.03
2023-01-12T20:18:19.858Z,96387.69
2023-01-12T20:20:46.425Z,96380.13
2023-01-12T20:23:14.925Z,96382.44
2023-01-12T20:25:43.257Z,96386.13
2023-01-12T20:28:12.687Z,96378.38
2023-01-12T20:30:41.369Z,96370.66
2023-01-12T20:33:08.701Z,96355.97
2023-01-12T20:35:38.432Z,96373.16
2023-01-12T20:38:06.969Z,96367.19
2023-01-12T20:40:33.749Z,96364.34
2023-01-12T20:43:00.423Z,96369.94
2023-01-12T20:45:27.126Z,96360.16
2023-01-12T20:47:55.517Z,96360.69
2023-01-12T20:50:23.291Z,96359.09
2023-01-12T20:52:50.978Z,96357.75
2023-01-12T20:55:17.578Z,96352.72
2023-01-12T20:57:44.200Z,96361.09
2023-01-12T21:00:11.371Z,96345.06
2023-01-12T21:02:37.973Z,96348.41
2023-01-12T21:05:04.979Z,96346.72
2023-01-12T21:07:31.675Z,96351.97
2023-01-12T21:09:58.323Z,96347.56
2023-01-12T21:12:27.395Z,96345.66
2023-01-12T21:14:54.512Z,96347.13
2023-01-12T21:17:21.597Z,96337.44
2023-01-12T21:19:48.249Z,96333.88
2023-01-12T21:22:14.961Z,96338.72
2023-01-12T21:24:41.557Z,96338.47
2023-01-12T21:27:08.105Z,96340.28
2023-01-12T21:29:34.801Z,96331.56
2023-01-12T21:32:01.656Z,96333.59
2023-01-12T21:34:28.689Z,96328.22
2023-01-12T21:36:55.257Z,96338.84
2023-01-12T21:39:21.900Z,96338.97
2023-01-12T21:42:07.267Z,96338.28
2023-01-12T21:44:33.833Z,96353.22
2023-01-12T21:47:00.398Z,96343.63
2023-01-12T21:49:27.031Z,96331.97
2023-01-12T21:51:53.691Z,96337.22
2023-01-12T21:54:20.314Z,96335.13
2023-01-12T21:56:46.925Z,96338.78
2023-01-12T21:59:13.698Z,96339.84
2023-01-12T22:01:40.407Z,96328.94
2023-01-12T22:04:07.140Z,96322.97
2023-01-12T22:06:33.803Z,96324.31
2023-01-12T22:09:00.486Z,96325.22
2023-01-12T22:11:27.244Z,96321.03
2023-01-12T22:13:54.637Z,96322.97
2023-01-12T22:16:21.595Z,96319.69
2023-01-12T22:18:50.193Z,96316.44
2023-01-12T22:21:19.139Z,96317.28
2023-01-12T22:23:46.095Z,96316.44
2023-01-12T22:26:14.645Z,96322.25
2023-01-12T22:28:42.818Z,96328.44
2023-01-12T22:31:15.249Z,96331.91
2023-01-12T22:33:54.885Z,96321.16
2023-01-12T22:36:21.844Z,96319.50
2023-01-12T22:38:48.445Z,96322.53
2023-01-12T22:41:16.531Z,96321.91
2023-01-12T22:43:43.188Z,96322.75
2023-01-12T22:46:14.715Z,96311.25
2023-01-12T22:48:41.464Z,96319.38
2023-01-12T22:51:08.536Z,96326.09
2023-01-12T22:53:36.232Z,96319.25
2023-01-12T22:56:04.933Z,96326.94
2023-01-12T22:58:32.151Z,96318.59
2023-01-12T23:01:07.389Z,96322.19
2023-01-12T23:03:35.754Z,96325.44
2023-01-12T23:06:04.409Z,96312.16
2023-01-12T23:08:31.285Z,96324.59
2023-01-12T23:11:09.552Z,96307.28
2023-01-12T23:13:36.599Z,96310.75
2023-01-12T23:16:09.112Z,96314.56
2023-01-12T23:18:38.400Z,96319.09
2023-01-12T23:21:18.691Z,96314.81
2023-01-12T23:23:55.134Z,96316.84
2023-01-12T23:26:26.198Z,96304.56
2023-01-12T23:28:56.179Z,96318.41
2023-01-12T23:31:29.051Z,96316.19
2023-01-12T23:33:57.247Z,96308.63
2023-01-12T23:36:32.195Z,96305.97
2023-01-12T23:39:01.626Z,96306.63
2023-01-12T23:41:30.397Z,96305.50
2023-01-12T23:44:02.411Z,96297.63
2023-01-12T23:46:31.003Z,96300.00
2023-01-12T23:48:58.068Z,96294.31
2023-01-12T23:51:26.675Z,96279.94
2023-01-12T23:53:54.697Z,96277.91
2023-01-12T23:56:22.235Z,96269.19
2023-01-12T23:58:49.137Z,96275.06
